createdAt,value
2018-12-12T00:01:39.153Z,1.10
2018-12-12T00:04:07.583Z,1.10
2018-12-12T00:06:36.089Z,1.10
2018-12-12T00:09:05.811Z,1.10
2018-12-12T00:11:34.347Z,0.97
2018-12-12T00:14:03.065Z,1.00
2018-12-12T00:16:31.773Z,0.90
2018-12-12T00:19:00.469Z,1.00
2018-12-12T00:21:29.159Z,0.73
2018-12-12T00:23:57.740Z,1.00
2018-12-12T00:26:26.274Z,1.00
2018-12-12T00:28:54.733Z,1.00
2018-12-12T00:31:23.166Z,1.00
2018-12-12T00:33:51.538Z,0.90
2018-12-12T00:36:20.025Z,0.90
2018-12-12T00:38:48.708Z,0.90
2018-12-12T00:41:17.300Z,0.97
2018-12-12T00:43:45.947Z,1.10
2018-12-12T00:46:14.740Z,1.00
2018-12-12T00:48:43.202Z,0.90
2018-12-12T00:51:11.670Z,0.90
2018-12-12T00:53:40.057Z,0.90
2018-12-12T00:56:08.543Z,0.90
2018-12-12T00:58:37.083Z,1.03
2018-12-12T01:01:05.666Z,0.90
2018-12-12T01:03:34.237Z,1.03
2018-12-12T01:06:02.761Z,1.20
2018-12-12T01:08:31.167Z,1.00
2018-12-12T01:11:05.254Z,0.93
2018-12-12T01:13:33.848Z,1.03
2018-12-12T01:16:02.330Z,0.90
2018-12-12T01:18:30.776Z,1.00
2018-12-12T01:20:59.157Z,1.13
2018-12-12T01:23:28.285Z,0.90
2018-12-12T01:25:57.174Z,1.00
2018-12-12T01:28:25.668Z,1.00
2018-12-12T01:30:54.100Z,1.00
2018-12-12T01:33:22.558Z,1.00
2018-12-12T01:35:50.977Z,0.97
2018-12-12T01:38:19.489Z,0.80
2018-12-12T01:40:47.998Z,1.00
2018-12-12T01:43:16.443Z,0.90
2018-12-12T01:45:44.826Z,1.10
2018-12-12T01:48:13.243Z,1.00
2018-12-12T01:50:41.735Z,1.00
2018-12-12T01:53:10.346Z,1.00
2018-12-12T01:55:38.739Z,1.00
2018-12-12T01:58:07.183Z,1.00
2018-12-12T02:00:35.575Z,0.93
2018-12-12T02:03:03.967Z,0.90
2018-12-12T02:05:32.381Z,0.80
2018-12-12T02:08:01.089Z,0.87
2018-12-12T02:10:29.622Z,1.00
2018-12-12T02:13:10.354Z,0.97
2018-12-12T02:15:38.804Z,0.87
2018-12-12T02:18:07.297Z,1.10
2018-12-12T02:20:35.840Z,1.03
2018-12-12T02:23:04.177Z,1.00
2018-12-12T02:25:32.744Z,0.90
2018-12-12T02:28:01.291Z,0.93
2018-12-12T02:30:29.684Z,0.90
2018-12-12T02:32:58.430Z,0.83
2018-12-12T02:35:27.255Z,1.00
2018-12-12T02:37:55.912Z,0.90
2018-12-12T02:40:24.627Z,0.90
2018-12-12T02:42:53.552Z,0.80
2018-12-12T02:45:22.344Z,1.03
2018-12-12T02:47:50.938Z,1.00
2018-12-12T02:50:19.634Z,0.80
2018-12-12T02:52:48.654Z,0.93
2018-12-12T02:55:17.120Z,1.00
2018-12-12T02:57:45.520Z,0.90
2018-12-12T03:00:14.841Z,1.00
2018-12-12T03:02:43.520Z,1.00
2018-12-12T03:05:12.025Z,1.10
2018-12-12T03:07:40.460Z,1.13
2018-12-12T03:10:09.036Z,1.00
2018-12-12T03:12:37.553Z,0.90
2018-12-12T03:15:05.982Z,1.00
2018-12-12T03:17:34.471Z,0.90
2018-12-12T03:20:03.601Z,1.00
2018-12-12T03:22:32.002Z,1.10
2018-12-12T03:25:00.643Z,0.90
2018-12-12T03:27:29.137Z,0.90
2018-12-12T03:29:57.921Z,1.07
2018-12-12T03:32:26.716Z,1.00
2018-12-12T03:34:55.244Z,1.23
2018-12-12T03:37:23.738Z,0.80
2018-12-12T03:39:52.188Z,1.03
2018-12-12T03:42:21.569Z,1.13
2018-12-12T03:44:50.044Z,1.03
2018-12-12T03:47:18.455Z,1.03
2018-12-12T03:49:46.865Z,1.10
2018-12-12T03:52:15.229Z,1.10
2018-12-12T03:54:43.700Z,1.17
2018-12-12T03:57:12.203Z,0.90
2018-12-12T03:59:40.795Z,1.20
2018-12-12T04:02:09.646Z,1.20
2018-12-12T04:04:38.134Z,1.10
2018-12-12T04:07:06.535Z,1.20
2018-12-12T04:09:34.925Z,1.00
2018-12-12T04:12:03.596Z,1.30
2018-12-12T04:14:32.410Z,1.20
2018-12-12T04:17:01.166Z,0.90
2018-12-12T04:19:30.707Z,1.30
2018-12-12T04:21:59.617Z,1.17
2018-12-12T04:24:28.316Z,1.27
2018-12-12T04:26:56.819Z,1.30
2018-12-12T04:29:25.429Z,1.40
2018-12-12T04:31:54.454Z,1.50
2018-12-12T04:34:24.153Z,1.50
2018-12-12T04:36:52.687Z,1.70
2018-12-12T04:39:21.194Z,1.40
2018-12-12T04:41:49.690Z,1.70
2018-12-12T04:44:18.089Z,1.60
2018-12-12T04:46:46.515Z,1.60
2018-12-12T04:49:15.312Z,2.30
2018-12-12T04:51:43.984Z,2.00
2018-12-12T04:54:12.691Z,2.03
2018-12-12T04:56:41.062Z,2.20
2018-12-12T04:59:09.782Z,2.00
2018-12-12T05:01:38.222Z,2.20
2018-12-12T05:04:06.833Z,2.33
2018-12-12T05:06:35.480Z,2.10
2018-12-12T05:09:05.792Z,2.47
2018-12-12T05:11:34.205Z,2.60
2018-12-12T05:14:02.630Z,3.10
2018-12-12T05:16:31.174Z,2.80
2018-12-12T05:18:59.652Z,2.90
2018-12-12T05:21:28.097Z,3.10
2018-12-12T05:23:56.551Z,3.40
2018-12-12T05:26:24.971Z,3.57
2018-12-12T05:28:53.346Z,3.60
2018-12-12T05:31:21.849Z,4.00
2018-12-12T05:33:50.477Z,4.27
2018-12-12T05:36:18.992Z,4.00
2018-12-12T05:38:47.349Z,4.00
2018-12-12T05:41:16.117Z,3.80
2018-12-12T05:43:44.828Z,3.73
2018-12-12T05:46:13.443Z,4.37
2018-12-12T05:48:42.122Z,4.00
2018-12-12T05:51:11.009Z,4.27
2018-12-12T05:53:39.733Z,4.30
2018-12-12T05:56:14.133Z,4.80
2018-12-12T05:58:39.420Z,5.50
2018-12-12T06:01:07.791Z,5.47
2018-12-12T06:03:36.197Z,4.60
2018-12-12T06:06:04.583Z,4.40
2018-12-12T06:08:33.065Z,5.20
2018-12-12T06:11:01.582Z,5.17
2018-12-12T06:13:30.154Z,4.50
2018-12-12T06:15:58.720Z,4.80
2018-12-12T06:18:28.603Z,4.97
2018-12-12T06:20:57.759Z,4.40
2018-12-12T06:23:26.448Z,4.77
2018-12-12T06:25:56.325Z,5.27
2018-12-12T06:28:25.256Z,5.20
2018-12-12T06:30:53.812Z,5.00
2018-12-12T06:33:22.509Z,5.27
2018-12-12T06:35:50.983Z,5.47
2018-12-12T06:38:19.713Z,5.53
2018-12-12T06:40:48.397Z,5.30
2018-12-12T06:43:16.833Z,5.47
2018-12-12T06:45:45.230Z,5.40
2018-12-12T06:48:13.626Z,5.00
2018-12-12T06:50:42.269Z,5.57
2018-12-12T06:53:10.657Z,5.43
2018-12-12T06:55:39.112Z,5.20
2018-12-12T06:58:07.652Z,5.07
2018-12-12T07:00:36.333Z,5.00
2018-12-12T07:03:05.022Z,4.97
2018-12-12T07:05:33.520Z,4.60
2018-12-12T07:08:01.925Z,4.97
2018-12-12T07:10:30.321Z,5.17
2018-12-12T07:12:58.903Z,5.10
2018-12-12T07:15:27.604Z,4.70
2018-12-12T07:17:57.935Z,4.33
2018-12-12T07:20:26.596Z,4.63
2018-12-12T07:22:55.199Z,4.37
2018-12-12T07:25:23.750Z,4.47
2018-12-12T07:27:52.214Z,5.13
2018-12-12T07:30:20.936Z,4.83
2018-12-12T07:32:49.729Z,4.80
2018-12-12T07:35:18.296Z,5.10
2018-12-12T07:37:46.838Z,5.30
2018-12-12T07:40:16.335Z,5.07
2018-12-12T07:42:45.425Z,5.37
2018-12-12T07:45:14.084Z,6.23
2018-12-12T07:47:42.682Z,5.70
2018-12-12T07:50:11.418Z,6.30
2018-12-12T07:52:40.096Z,6.20
2018-12-12T07:55:08.762Z,5.57
2018-12-12T07:57:37.318Z,5.30
2018-12-12T08:00:08.268Z,4.90
2018-12-12T08:02:36.640Z,5.20
2018-12-12T08:05:05.015Z,5.07
2018-12-12T08:07:33.662Z,5.30
2018-12-12T08:10:02.649Z,4.70
2018-12-12T08:12:31.071Z,4.90
2018-12-12T08:14:59.431Z,5.03
2018-12-12T08:17:28.250Z,4.80
2018-12-12T08:19:57.021Z,4.80
2018-12-12T08:22:25.566Z,4.63
2018-12-12T08:24:54.074Z,4.13
2018-12-12T08:27:22.655Z,4.37
2018-12-12T08:29:51.382Z,4.10
2018-12-12T08:32:20.710Z,4.67
2018-12-12T08:34:49.417Z,4.47
2018-12-12T08:37:18.156Z,4.03
2018-12-12T08:39:46.962Z,3.77
2018-12-12T08:42:15.700Z,4.43
2018-12-12T08:44:44.427Z,3.80
2018-12-12T08:47:13.194Z,3.80
2018-12-12T08:49:41.925Z,4.03
2018-12-12T08:52:10.550Z,3.97
2018-12-12T08:54:39.031Z,4.30
2018-12-12T08:57:07.485Z,4.03
2018-12-12T08:59:35.940Z,4.00
2018-12-12T09:02:05.478Z,3.40
2018-12-12T09:04:34.062Z,4.10
2018-12-12T09:07:02.746Z,3.70
2018-12-12T09:09:31.154Z,4.10
2018-12-12T09:11:59.533Z,3.53
2018-12-12T09:14:27.963Z,4.07
2018-12-12T09:16:56.678Z,3.73
2018-12-12T09:19:25.334Z,3.93
2018-12-12T09:21:54.072Z,3.87
2018-12-12T09:24:22.664Z,3.53
2018-12-12T09:26:51.245Z,4.07
2018-12-12T09:29:20.078Z,4.00
2018-12-12T09:31:48.530Z,3.30
2018-12-12T09:34:17.156Z,3.80
2018-12-12T09:36:45.832Z,3.40
2018-12-12T09:39:14.231Z,3.50
2018-12-12T09:41:42.755Z,3.20
2018-12-12T09:44:11.241Z,3.53
2018-12-12T09:46:39.682Z,3.40
2018-12-12T09:49:08.522Z,3.50
2018-12-12T09:51:36.982Z,3.43
2018-12-12T09:54:05.440Z,3.47
2018-12-12T09:56:33.952Z,3.70
2018-12-12T09:59:02.405Z,3.50
2018-12-12T10:01:30.785Z,3.60
2018-12-12T10:03:59.232Z,4.10
2018-12-12T10:06:27.758Z,3.43
2018-12-12T10:08:57.572Z,3.43
2018-12-12T10:11:26.398Z,3.47
2018-12-12T10:13:55.727Z,3.10
2018-12-12T10:16:24.183Z,3.70
2018-12-12T10:18:52.667Z,3.13
2018-12-12T10:21:21.129Z,3.37
2018-12-12T10:23:50.039Z,3.10
2018-12-12T10:26:18.587Z,3.20
2018-12-12T10:28:47.005Z,3.17
2018-12-12T10:31:15.530Z,3.03
2018-12-12T10:33:43.958Z,3.17
2018-12-12T10:36:12.382Z,3.10
2018-12-12T10:38:40.840Z,2.40
2018-12-12T10:41:09.296Z,3.00
2018-12-12T10:43:37.805Z,2.60
2018-12-12T10:46:06.282Z,3.20
2018-12-12T10:48:34.831Z,2.80
2018-12-12T10:51:03.332Z,2.83
2018-12-12T10:53:33.687Z,2.80
2018-12-12T10:56:02.438Z,2.90
2018-12-12T10:58:31.097Z,2.87
2018-12-12T11:01:05.396Z,3.10
2018-12-12T11:03:35.863Z,2.73
2018-12-12T11:06:04.378Z,2.57
2018-12-12T11:08:33.017Z,3.07
2018-12-12T11:11:01.836Z,2.50
2018-12-12T11:13:30.359Z,2.83
2018-12-12T11:15:58.729Z,2.10
2018-12-12T11:18:27.713Z,2.47
2018-12-12T11:20:56.318Z,2.50
2018-12-12T11:23:24.864Z,2.67
2018-12-12T11:25:53.417Z,2.57
2018-12-12T11:28:21.822Z,2.60
2018-12-12T11:30:50.238Z,2.77
2018-12-12T11:33:18.659Z,2.47
2018-12-12T11:35:47.093Z,2.80
2018-12-12T11:38:15.742Z,2.60
2018-12-12T11:40:44.614Z,2.90
2018-12-12T11:43:13.039Z,2.80
2018-12-12T11:45:41.445Z,2.73
2018-12-12T11:48:09.855Z,2.97
2018-12-12T11:50:38.210Z,3.00
2018-12-12T11:53:06.618Z,2.83
2018-12-12T11:55:34.997Z,2.70
2018-12-12T11:58:03.552Z,3.07
2018-12-12T12:00:31.948Z,3.00
2018-12-12T12:03:00.309Z,2.73
2018-12-12T12:05:28.850Z,2.80
2018-12-12T12:07:58.431Z,3.10
2018-12-12T12:10:27.042Z,2.97
2018-12-12T12:12:55.611Z,3.43
2018-12-12T12:15:24.279Z,3.40
2018-12-12T12:17:52.685Z,3.53
2018-12-12T12:20:21.072Z,3.63
2018-12-12T12:22:49.721Z,3.30
2018-12-12T12:25:18.117Z,4.00
2018-12-12T12:27:46.671Z,3.50
2018-12-12T12:30:15.044Z,3.40
2018-12-12T12:32:43.756Z,3.90
2018-12-12T12:35:12.441Z,3.43
2018-12-12T12:37:40.902Z,3.83
2018-12-12T12:40:09.496Z,3.80
2018-12-12T12:42:38.081Z,4.13
2018-12-12T12:45:06.907Z,3.93
2018-12-12T12:47:35.378Z,3.67
2018-12-12T12:50:05.560Z,3.77
2018-12-12T12:52:33.925Z,4.13
2018-12-12T12:55:02.339Z,4.30
2018-12-12T12:57:30.753Z,4.10
2018-12-12T12:59:59.324Z,4.07
2018-12-12T13:02:27.816Z,4.30
2018-12-12T13:04:56.588Z,3.80
2018-12-12T13:07:25.335Z,3.57
2018-12-12T13:09:53.852Z,4.03
2018-12-12T13:12:22.247Z,4.23
2018-12-12T13:14:50.672Z,3.60
2018-12-12T13:17:19.170Z,3.57
2018-12-12T13:19:47.610Z,4.00
2018-12-12T13:22:16.174Z,3.90
2018-12-12T13:24:44.648Z,4.30
2018-12-12T13:27:13.030Z,3.80
2018-12-12T13:29:41.750Z,4.00
2018-12-12T13:32:10.505Z,4.17
2018-12-12T13:34:39.111Z,4.10
2018-12-12T13:37:07.558Z,3.87
2018-12-12T13:39:36.121Z,3.70
2018-12-12T13:42:05.074Z,4.07
2018-12-12T13:44:33.700Z,3.60
2018-12-12T13:47:02.366Z,4.20
2018-12-12T13:49:30.954Z,3.93
2018-12-12T13:51:59.361Z,3.83
2018-12-12T13:54:27.703Z,3.80
2018-12-12T13:56:56.102Z,3.70
2018-12-12T13:59:24.520Z,3.77
2018-12-12T14:01:53.039Z,3.80
2018-12-12T14:04:22.913Z,3.80
2018-12-12T14:06:51.731Z,3.93
2018-12-12T14:09:20.300Z,4.10
2018-12-12T14:11:48.744Z,4.50
2018-12-12T14:14:17.213Z,4.00
2018-12-12T14:16:45.874Z,4.10
2018-12-12T14:19:14.365Z,4.00
2018-12-12T14:21:42.768Z,4.00
2018-12-12T14:24:11.548Z,3.70
2018-12-12T14:26:40.275Z,3.87
2018-12-12T14:29:08.790Z,4.10
2018-12-12T14:31:37.318Z,4.20
2018-12-12T14:34:05.975Z,3.80
2018-12-12T14:36:34.678Z,4.27
2018-12-12T14:39:04.349Z,4.30
2018-12-12T14:41:33.866Z,4.40
2018-12-12T14:44:02.426Z,4.00
2018-12-12T14:46:30.922Z,5.00
2018-12-12T14:48:59.451Z,5.10
2018-12-12T14:51:28.062Z,4.90
2018-12-12T14:53:57.714Z,4.60
2018-12-12T14:56:26.342Z,4.70
2018-12-12T14:58:54.887Z,4.70
2018-12-12T15:01:23.840Z,4.60
2018-12-12T15:03:52.622Z,4.83
2018-12-12T15:06:21.094Z,4.57
2018-12-12T15:08:49.722Z,4.63
2018-12-12T15:11:18.185Z,4.40
2018-12-12T15:13:46.887Z,4.80
2018-12-12T15:16:15.438Z,4.83
2018-12-12T15:18:44.050Z,4.50
2018-12-12T15:21:12.626Z,4.87
2018-12-12T15:23:41.065Z,4.90
2018-12-12T15:26:09.689Z,4.70
2018-12-12T15:28:38.300Z,4.70
2018-12-12T15:31:06.927Z,4.53
2018-12-12T15:33:35.448Z,4.80
2018-12-12T15:36:03.937Z,4.70
2018-12-12T15:38:33.026Z,5.27
2018-12-12T15:41:01.598Z,5.17
2018-12-12T15:43:29.938Z,5.00
2018-12-12T15:45:58.479Z,5.57
2018-12-12T15:48:27.008Z,5.43
2018-12-12T15:50:55.515Z,4.90
2018-12-12T15:53:23.902Z,5.30
2018-12-12T15:55:53.235Z,5.20
2018-12-12T15:58:21.791Z,5.13
2018-12-12T16:00:50.596Z,4.90
2018-12-12T16:03:19.493Z,5.50
2018-12-12T16:05:48.023Z,5.20
2018-12-12T16:08:18.226Z,5.13
2018-12-12T16:10:46.762Z,5.40
2018-12-12T16:13:15.270Z,5.20
2018-12-12T16:15:43.729Z,4.80
2018-12-12T16:18:12.116Z,5.57
2018-12-12T16:20:40.633Z,5.73
2018-12-12T16:23:09.182Z,6.00
2018-12-12T16:25:37.805Z,5.50
2018-12-12T16:28:06.467Z,5.10
2018-12-12T16:30:34.827Z,5.70
2018-12-12T16:33:03.283Z,6.00
2018-12-12T16:35:32.031Z,5.70
2018-12-12T16:38:00.497Z,5.87
2018-12-12T16:40:28.955Z,5.80
2018-12-12T16:42:57.476Z,5.47
2018-12-12T16:45:26.227Z,6.00
2018-12-12T16:47:54.629Z,5.57
2018-12-12T16:50:22.968Z,6.20
2018-12-12T16:52:51.361Z,6.30
2018-12-12T16:55:19.790Z,6.20
2018-12-12T16:57:48.182Z,6.27
2018-12-12T17:00:16.612Z,5.30
2018-12-12T17:02:45.011Z,5.77
2018-12-12T17:05:13.532Z,5.50
2018-12-12T17:07:42.223Z,6.00
2018-12-12T17:10:10.977Z,5.70
2018-12-12T17:12:39.511Z,5.43
2018-12-12T17:15:08.104Z,5.90
2018-12-12T17:17:36.527Z,5.97
2018-12-12T17:20:06.498Z,6.00
2018-12-12T17:22:34.960Z,5.90
2018-12-12T17:25:03.475Z,5.77
2018-12-12T17:27:31.908Z,5.90
2018-12-12T17:30:00.301Z,6.17
2018-12-12T17:32:28.787Z,6.20
2018-12-12T17:34:57.299Z,5.80
2018-12-12T17:37:25.815Z,5.77
2018-12-12T17:39:54.331Z,5.93
2018-12-12T17:42:22.858Z,5.70
2018-12-12T17:44:51.248Z,6.30
2018-12-12T17:47:19.647Z,6.77
2018-12-12T17:49:48.080Z,6.07
2018-12-12T17:52:16.537Z,6.10
2018-12-12T17:54:45.106Z,6.30
2018-12-12T17:57:14.007Z,5.70
2018-12-12T17:59:42.494Z,6.40
2018-12-12T18:02:10.933Z,6.10
2018-12-12T18:04:39.774Z,5.80
2018-12-12T18:07:08.268Z,6.10
2018-12-12T18:09:36.698Z,6.70
2018-12-12T18:12:05.187Z,6.30
2018-12-12T18:14:33.690Z,5.93
2018-12-12T18:17:02.190Z,6.60
2018-12-12T18:19:30.539Z,6.40
2018-12-12T18:21:59.036Z,6.70
2018-12-12T18:24:27.512Z,6.40
2018-12-12T18:26:55.897Z,6.40
2018-12-12T18:29:24.275Z,6.43
2018-12-12T18:31:52.696Z,6.20
2018-12-12T18:34:21.207Z,6.70
2018-12-12T18:36:49.819Z,6.40
2018-12-12T18:39:18.459Z,6.00
2018-12-12T18:41:46.888Z,6.30
2018-12-12T18:44:15.316Z,6.37
2018-12-12T18:46:43.838Z,6.23
2018-12-12T18:49:12.344Z,6.47
2018-12-12T18:51:40.698Z,6.27
2018-12-12T18:54:09.273Z,6.67
2018-12-12T18:56:37.730Z,6.30
2018-12-12T18:59:06.447Z,6.20
2018-12-12T19:01:34.913Z,6.63
2018-12-12T19:04:03.539Z,6.63
2018-12-12T19:06:32.403Z,6.70
2018-12-12T19:09:01.390Z,6.50
2018-12-12T19:11:30.089Z,6.10
2018-12-12T19:13:59.036Z,6.40
2018-12-12T19:16:27.890Z,6.00
2018-12-12T19:19:00.541Z,6.90
2018-12-12T19:21:30.142Z,6.50
2018-12-12T19:23:58.700Z,6.30
2018-12-12T19:26:27.171Z,6.60
2018-12-12T19:28:56.044Z,6.20
2018-12-12T19:31:25.962Z,6.30
2018-12-12T19:33:56.191Z,6.10
2018-12-12T19:36:30.483Z,6.17
2018-12-12T19:39:00.572Z,6.43
2018-12-12T19:41:30.785Z,6.03
2018-12-12T19:44:00.986Z,6.40
2018-12-12T19:46:31.335Z,6.27
2018-12-12T19:49:02.105Z,6.37
2018-12-12T19:51:32.740Z,6.50
2018-12-12T19:54:04.132Z,6.67
2018-12-12T19:56:34.790Z,6.50
2018-12-12T19:59:07.715Z,6.30
2018-12-12T20:01:41.393Z,6.10
2018-12-12T20:04:11.395Z,5.90
2018-12-12T20:06:40.804Z,6.17
2018-12-12T20:09:13.088Z,6.40
2018-12-12T20:11:44.071Z,6.40
2018-12-12T20:14:15.424Z,6.10
2018-12-12T20:16:46.106Z,7.17
2018-12-12T20:19:15.333Z,6.63
2018-12-12T20:21:47.202Z,6.20
2018-12-12T20:24:17.363Z,6.30
2018-12-12T20:26:47.124Z,6.43
2018-12-12T20:29:17.031Z,6.30
2018-12-12T20:31:48.257Z,6.77
2018-12-12T20:34:18.378Z,6.83
2018-12-12T20:36:48.773Z,6.30
2018-12-12T20:39:19.552Z,6.20
2018-12-12T20:41:50.514Z,6.43
2018-12-12T20:44:20.464Z,6.63
2018-12-12T20:46:49.927Z,6.43
2018-12-12T20:49:21.411Z,6.70
2018-12-12T20:51:52.220Z,6.60
2018-12-12T20:54:22.697Z,6.53
2018-12-12T20:56:52.805Z,6.30
2018-12-12T20:59:22.639Z,6.70
2018-12-12T21:01:52.202Z,7.27
2018-12-12T21:04:22.304Z,6.40
2018-12-12T21:06:52.992Z,6.67
2018-12-12T21:09:23.815Z,7.00
2018-12-12T21:11:55.389Z,7.60
2018-12-12T21:14:26.937Z,7.40
2018-12-12T21:16:57.780Z,6.80
2018-12-12T21:19:36.019Z,6.43
2018-12-12T21:22:09.320Z,7.10
2018-12-12T21:24:41.779Z,6.90
2018-12-12T21:27:12.593Z,7.20
2018-12-12T21:29:42.762Z,7.30
2018-12-12T21:32:11.448Z,7.63
2018-12-12T21:34:39.899Z,7.50
2018-12-12T21:37:08.516Z,7.40
2018-12-12T21:39:37.368Z,7.60
2018-12-12T21:42:06.116Z,7.83
2018-12-12T21:44:35.082Z,7.47
2018-12-12T21:47:03.688Z,7.50
2018-12-12T21:49:32.132Z,7.77
2018-12-12T21:52:00.681Z,7.87
2018-12-12T21:54:29.090Z,7.70
2018-12-12T21:56:57.508Z,7.80
2018-12-12T21:59:26.282Z,7.53
2018-12-12T22:01:54.823Z,8.90
2018-12-12T22:04:23.163Z,8.70
2018-12-12T22:06:51.585Z,8.87
2018-12-12T22:09:20.303Z,8.37
2018-12-12T22:11:48.835Z,8.60
2018-12-12T22:14:17.233Z,7.87
2018-12-12T22:16:45.638Z,7.97
2018-12-12T22:19:14.031Z,8.43
2018-12-12T22:21:42.423Z,7.93
2018-12-12T22:24:10.874Z,7.40
2018-12-12T22:26:39.262Z,7.83
2018-12-12T22:29:07.727Z,8.10
2018-12-12T22:31:36.140Z,8.20
2018-12-12T22:34:04.583Z,7.50
2018-12-12T22:36:32.989Z,7.40
2018-12-12T22:39:01.668Z,7.50
2018-12-12T22:41:30.110Z,7.47
2018-12-12T22:43:59.019Z,6.90
2018-12-12T22:46:27.437Z,7.00
2018-12-12T22:48:55.837Z,7.43
2018-12-12T22:51:24.494Z,6.57
2018-12-12T22:53:53.054Z,6.53
2018-12-12T22:56:22.900Z,6.40
2018-12-12T22:58:51.778Z,6.23
2018-12-12T23:01:24.636Z,6.20
2018-12-12T23:03:55.626Z,6.07
2018-12-12T23:06:24.726Z,6.33
2018-12-12T23:08:53.264Z,6.40
2018-12-12T23:11:21.729Z,5.90
2018-12-12T23:13:50.504Z,5.97
2018-12-12T23:16:19.166Z,5.77
2018-12-12T23:18:47.615Z,5.80
2018-12-12T23:21:16.083Z,6.00
2018-12-12T23:23:45.195Z,5.60
2018-12-12T23:26:14.109Z,5.97
2018-12-12T23:28:42.652Z,5.70
2018-12-12T23:31:11.083Z,5.50
2018-12-12T23:33:39.466Z,5.57
2018-12-12T23:36:08.126Z,5.80
2018-12-12T23:38:36.648Z,5.30
2018-12-12T23:41:05.049Z,5.20
2018-12-12T23:43:33.481Z,5.53
2018-12-12T23:46:02.541Z,5.00
2018-12-12T23:48:31.055Z,5.40
2018-12-12T23:50:59.585Z,4.80
2018-12-12T23:53:28.051Z,5.20
2018-12-12T23:55:56.522Z,5.50
2018-12-12T23:58:25.276Z,5.43
